Time;durP1;ratioP1;P1;durP2;ratioP2;P2;SDS_P1;SDS_P2;PMS_P1;PMS_P2;Temp;Humidity;BMP_temperature;BMP_pressure;BME280_temperature;BME280_humidity;BME280_pressure;Samples;Min_cycle;Max_cycle;Signal;HPM_P1;HPM_P2
2020/12/20 00:00:33;;;;;;;3.43;3.07;;;19.70;26.90;;;;;;5073024;28;20159;-60
2020/12/20 00:02:58;;;;;;;3.07;2.87;;;19.60;27.40;;;;;;5073113;28;20178;-59
2020/12/20 00:05:25;;;;;;;3.40;3.07;;;19.60;26.80;;;;;;5071879;28;20202;-60
2020/12/20 00:07:52;;;;;;;3.28;2.80;;;19.60;26.80;;;;;;5072633;28;20238;-60
2020/12/20 00:10:18;;;;;;;3.60;2.78;;;19.60;26.80;;;;;;5074457;28;20187;-59
2020/12/20 00:12:45;;;;;;;3.10;2.70;;;19.60;27.40;;;;;;5075192;28;20155;-60
2020/12/20 00:15:11;;;;;;;3.08;2.78;;;19.60;26.80;;;;;;5076614;28;20178;-60
2020/12/20 00:17:36;;;;;;;2.77;2.57;;;19.60;26.80;;;;;;5076377;28;20602;-59
2020/12/20 00:20:07;;;;;;;3.10;2.80;;;19.60;26.80;;;;;;5076208;28;20412;-60
2020/12/20 00:22:33;;;;;;;3.65;3.35;;;19.60;26.90;;;;;;5075806;28;20201;-60
2020/12/20 00:24:59;;;;;;;3.60;3.30;;;19.60;26.90;;;;;;5076505;28;20171;-60
2020/12/20 00:27:25;;;;;;;3.20;2.90;;;19.60;26.90;;;;;;5076315;28;20396;-59
2020/12/20 00:29:51;;;;;;;2.90;2.70;;;19.60;26.90;;;;;;5076398;28;20387;-59
2020/12/20 00:32:18;;;;;;;2.85;2.65;;;19.60;26.90;;;;;;5076011;28;20191;-59
2020/12/20 00:34:44;;;;;;;4.20;3.20;;;19.60;26.90;;;;;;5076308;28;20483;-59
2020/12/20 00:37:09;;;;;;;3.27;2.97;;;19.60;26.90;;;;;;5075434;28;20186;-58
2020/12/20 00:39:35;;;;;;;3.07;2.77;;;19.60;26.90;;;;;;5076170;28;20759;-58
2020/12/20 00:42:04;;;;;;;3.25;2.95;;;19.60;26.90;;;;;;5074541;28;20200;-60
2020/12/20 00:44:30;;;;;;;2.97;2.67;;;19.60;26.90;;;;;;5076301;28;20159;-60
2020/12/20 00:46:58;;;;;;;3.30;3.10;;;19.60;26.90;;;;;;5075732;28;20234;-59
2020/12/20 00:49:25;;;;;;;2.58;2.38;;;19.60;26.90;;;;;;5075944;28;20154;-60
2020/12/20 00:51:52;;;;;;;5.13;2.60;;;19.60;26.90;;;;;;5075704;28;20159;-60
2020/12/20 00:54:18;;;;;;;3.60;3.30;;;19.60;27.00;;;;;;5075332;28;20215;-60
2020/12/20 00:56:45;;;;;;;3.05;2.83;;;19.60;26.90;;;;;;5075539;28;20155;-60
2020/12/20 00:59:12;;;;;;;3.38;3.15;;;19.60;27.00;;;;;;5074348;28;20173;-60
2020/12/20 01:01:38;;;;;;;2.50;2.33;;;19.60;26.90;;;;;;5075646;28;20217;-60
2020/12/20 01:04:04;;;;;;;3.00;2.70;;;19.60;26.90;;;;;;5075562;28;20601;-59
2020/12/20 01:06:29;;;;;;;3.03;2.80;;;19.60;26.90;;;;;;5074374;28;20645;-60
2020/12/20 01:08:55;;;;;;;3.07;2.77;;;19.60;26.90;;;;;;5074976;28;20174;-59
2020/12/20 01:11:21;;;;;;;3.83;3.47;;;19.60;27.00;;;;;;5075452;28;20170;-61
2020/12/20 01:13:49;;;;;;;4.47;3.43;;;19.60;26.90;;;;;;5075399;28;20298;-61
2020/12/20 01:16:15;;;;;;;3.45;3.15;;;19.60;26.90;;;;;;5075175;28;20407;-60
2020/12/20 01:18:41;;;;;;;2.85;2.65;;;19.60;26.90;;;;;;5074088;28;20170;-59
2020/12/20 01:21:07;;;;;;;3.50;3.20;;;19.60;27.00;;;;;;5075121;28;20225;-60
2020/12/20 01:23:32;;;;;;;3.80;3.40;;;19.60;27.00;;;;;;5074604;28;20162;-60
2020/12/20 01:26:01;;;;;;;3.30;3.00;;;19.60;27.00;;;;;;5075523;28;20224;-60
2020/12/20 01:28:28;;;;;;;2.70;2.35;;;19.50;26.90;;;;;;5075061;28;20155;-60
2020/12/20 01:30:57;;;;;;;2.75;2.55;;;19.50;26.90;;;;;;5075013;28;20169;-58
2020/12/20 01:33:23;;;;;;;3.22;2.92;;;19.50;26.90;;;;;;5074962;28;20157;-59
2020/12/20 01:35:48;;;;;;;3.27;2.80;;;19.50;26.90;;;;;;5075044;28;20614;-59
2020/12/20 01:38:14;;;;;;;3.17;2.87;;;19.50;26.90;;;;;;5106937;27;20187;-60
2020/12/20 01:40:40;;;;;;;3.03;2.83;;;19.60;27.00;;;;;;5074632;28;20450;-59
2020/12/20 01:43:05;;;;;;;3.07;2.73;;;19.60;27.00;;;;;;5073441;28;20629;-60
2020/12/20 01:45:31;;;;;;;3.17;2.87;;;19.60;27.00;;;;;;5074705;28;20182;-60
2020/12/20 01:47:57;;;;;;;3.00;2.80;;;19.50;26.90;;;;;;5073505;28;20166;-59
2020/12/20 01:50:23;;;;;;;2.80;2.60;;;19.50;26.90;;;;;;5074666;28;20155;-59
2020/12/20 01:52:49;;;;;;;2.87;2.60;;;19.50;26.90;;;;;;5074215;28;20510;-59
2020/12/20 01:55:20;;;;;;;3.30;2.78;;;19.50;26.90;;;;;;5074544;28;20395;-60
2020/12/20 01:57:45;;;;;;;3.70;3.40;;;19.50;26.90;;;;;;5073341;28;20173;-60
2020/12/20 02:00:12;;;;;;;3.17;2.87;;;19.60;27.00;;;;;;5074574;28;20147;-59
2020/12/20 02:02:37;;;;;;;3.05;2.75;;;19.50;26.90;;;;;;5074287;28;20460;-60
2020/12/20 02:05:04;;;;;;;2.70;2.50;;;19.50;26.90;;;;;;5073021;28;20175;-60
2020/12/20 02:07:29;;;;;;;5.32;3.25;;;19.60;27.00;;;;;;5073961;28;20150;-60
2020/12/20 02:09:55;;;;;;;3.63;2.90;;;19.50;26.90;;;;;;5074179;28;20162;-60
2020/12/20 02:12:26;;;;;;;2.77;2.57;;;19.50;26.90;;;;;;5074282;28;20158;-60
2020/12/20 02:14:53;;;;;;;3.33;2.60;;;19.60;27.00;;;;;;5074351;28;20223;-60
2020/12/20 02:17:18;;;;;;;2.50;2.30;;;19.50;26.90;;;;;;5073955;28;20154;-60
2020/12/20 02:19:44;;;;;;;3.60;2.83;;;19.50;26.90;;;;;;5072874;28;20234;-60
2020/12/20 02:22:10;;;;;;;3.90;3.50;;;19.50;26.90;;;;;;5073559;28;20197;-60
2020/12/20 02:24:35;;;;;;;3.27;2.80;;;19.50;26.90;;;;;;5074222;28;20161;-60
2020/12/20 02:27:01;;;;;;;3.00;2.70;;;19.50;26.90;;;;;;5072735;28;20553;-60
2020/12/20 02:29:27;;;;;;;3.10;2.67;;;19.50;26.90;;;;;;5074064;28;20159;-60
2020/12/20 02:31:53;;;;;;;3.03;2.13;;;19.60;27.00;;;;;;5073613;28;20162;-60
2020/12/20 02:34:18;;;;;;;3.60;2.23;;;19.50;26.90;;;;;;5073658;28;20147;-60
2020/12/20 02:36:45;;;;;;;3.03;2.40;;;19.50;26.90;;;;;;5074113;28;20169;-60
2020/12/20 02:39:11;;;;;;;3.97;3.40;;;19.60;26.90;;;;;;5072651;28;20268;-59
2020/12/20 02:41:37;;;;;;;4.40;3.30;;;19.50;26.90;;;;;;5073947;28;20242;-60
2020/12/20 02:44:03;;;;;;;3.90;3.37;;;19.50;26.90;;;;;;5073949;28;20197;-61
2020/12/20 02:46:30;;;;;;;3.65;3.30;;;19.50;26.90;;;;;;5073870;28;20218;-60
2020/12/20 02:48:59;;;;;;;3.08;2.75;;;19.50;26.90;;;;;;5073543;28;20158;-61
2020/12/20 02:51:28;;;;;;;3.20;2.90;;;19.60;26.90;;;;;;5074095;28;20151;-60
2020/12/20 02:53:56;;;;;;;3.03;2.55;;;19.50;26.90;;;;;;5072157;28;20216;-60
2020/12/20 02:56:28;;;;;;;2.90;2.70;;;19.50;26.90;;;;;;5073685;28;20158;-60
2020/12/20 02:58:57;;;;;;;2.80;2.60;;;19.50;26.90;;;;;;5073740;28;20513;-60
2020/12/20 03:01:22;;;;;;;3.08;2.88;;;19.50;26.90;;;;;;5073680;28;20153;-60
2020/12/20 03:03:48;;;;;;;3.77;3.47;;;19.50;26.90;;;;;;5073586;28;20158;-60
2020/12/20 03:06:14;;;;;;;2.90;2.70;;;19.60;26.90;;;;;;5073672;28;20186;-60
2020/12/20 03:08:39;;;;;;;3.20;3.00;;;19.50;26.90;;;;;;5073144;28;20155;-60
2020/12/20 03:11:05;;;;;;;3.10;2.50;;;19.50;26.90;;;;;;5073740;28;20257;-60
2020/12/20 03:13:30;;;;;;;3.00;2.70;;;19.50;26.90;;;;;;5073546;28;20158;-60
2020/12/20 03:15:56;;;;;;;3.03;2.73;;;19.50;26.90;;;;;;5073745;28;20162;-59
2020/12/20 03:18:22;;;;;;;2.67;2.47;;;19.50;26.90;;;;;;5073341;28;20158;-59
2020/12/20 03:20:47;;;;;;;3.13;2.83;;;19.50;26.90;;;;;;5073579;28;20169;-60
2020/12/20 03:23:13;;;;;;;3.20;2.90;;;19.50;26.90;;;;;;5072829;28;20167;-59
2020/12/20 03:25:39;;;;;;;3.37;3.07;;;19.50;26.90;;;;;;5072426;28;20255;-61
2020/12/20 03:28:04;;;;;;;3.23;2.50;;;19.50;26.90;;;;;;5073335;28;20247;-60
2020/12/20 03:30:30;;;;;;;2.90;2.70;;;19.50;27.40;;;;;;5073347;28;20157;-60
2020/12/20 03:32:56;;;;;;;3.00;2.60;;;19.50;26.90;;;;;;5073148;28;20632;-60
2020/12/20 03:35:22;;;;;;;2.83;2.63;;;19.50;26.90;;;;;;5089072;28;20652;-61
2020/12/20 03:37:53;;;;;;;2.80;2.60;;;19.50;26.90;;;;;;5072644;28;20244;-60
2020/12/20 03:40:20;;;;;;;2.63;2.42;;;19.50;26.90;;;;;;5072093;28;20919;-60
2020/12/20 03:42:46;;;;;;;3.13;2.92;;;19.50;26.90;;;;;;5073192;28;20158;-59
2020/12/20 03:45:14;;;;;;;3.08;2.35;;;19.50;26.90;;;;;;5075704;28;20609;-60
2020/12/20 03:47:40;;;;;;;2.40;2.20;;;19.50;26.90;;;;;;5076795;28;20213;-60
2020/12/20 03:50:05;;;;;;;2.90;2.70;;;19.50;26.90;;;;;;5077100;28;20482;-60
2020/12/20 03:52:31;;;;;;;4.17;3.23;;;19.50;26.90;;;;;;5076513;28;20494;-60
2020/12/20 03:54:56;;;;;;;3.20;2.90;;;19.50;26.90;;;;;;5077258;28;20536;-60
2020/12/20 03:57:22;;;;;;;3.37;3.07;;;19.50;26.90;;;;;;5077031;28;20184;-60
2020/12/20 03:59:48;;;;;;;3.57;2.37;;;19.50;26.90;;;;;;5075606;28;20617;-59
2020/12/20 04:02:13;;;;;;;3.30;3.03;;;19.50;26.90;;;;;;5075247;28;20171;-60
2020/12/20 04:04:39;;;;;;;3.20;2.90;;;19.50;26.90;;;;;;5076784;28;20154;-59
2020/12/20 04:07:04;;;;;;;2.70;2.50;;;19.50;26.90;;;;;;5076042;28;20640;-59
2020/12/20 04:09:30;;;;;;;3.30;3.00;;;19.50;26.90;;;;;;5076630;28;20285;-60
2020/12/20 04:11:59;;;;;;;2.90;2.70;;;19.50;26.90;;;;;;5075329;28;20163;-60
2020/12/20 04:14:25;;;;;;;3.45;2.85;;;19.50;26.90;;;;;;5075513;28;20202;-60
2020/12/20 04:16:51;;;;;;;3.10;2.90;;;19.50;26.90;;;;;;5076337;28;20663;-60
2020/12/20 04:19:16;;;;;;;2.83;2.43;;;19.50;26.90;;;;;;5076610;28;20169;-60
2020/12/20 04:21:42;;;;;;;2.73;2.53;;;19.50;26.90;;;;;;5076361;28;20162;-60
2020/12/20 04:24:07;;;;;;;2.70;2.50;;;19.50;26.90;;;;;;5075954;28;20162;-60
2020/12/20 04:26:33;;;;;;;2.33;2.23;;;19.50;26.90;;;;;;5076534;28;20197;-60
2020/12/20 04:28:59;;;;;;;2.70;2.50;;;19.50;26.90;;;;;;5076244;28;20159;-61
2020/12/20 04:31:28;;;;;;;3.10;2.80;;;19.50;26.90;;;;;;5074941;28;20640;-60
2020/12/20 04:33:53;;;;;;;3.60;2.63;;;19.50;26.90;;;;;;5076307;28;20169;-60
2020/12/20 04:36:19;;;;;;;3.30;3.00;;;19.50;26.90;;;;;;5076293;28;20163;-59
2020/12/20 04:38:45;;;;;;;2.90;2.70;;;19.50;26.90;;;;;;5074056;28;20182;-59
2020/12/20 04:41:11;;;;;;;2.80;2.60;;;19.50;26.90;;;;;;5076015;28;20202;-60
2020/12/20 04:43:38;;;;;;;2.63;2.42;;;19.50;26.90;;;;;;5075881;28;20159;-59
2020/12/20 04:46:04;;;;;;;2.95;2.75;;;19.50;26.90;;;;;;5075715;28;20306;-58
2020/12/20 04:48:38;;;;;;;2.80;2.60;;;19.50;26.90;;;;;;5075869;28;20513;-60
2020/12/20 04:51:04;;;;;;;3.08;2.80;;;19.50;26.90;;;;;;5075842;28;20241;-60
2020/12/20 04:53:30;;;;;;;3.85;3.55;;;19.50;26.90;;;;;;5073961;28;20162;-60
2020/12/20 04:56:06;;;;;;;3.35;3.05;;;19.50;26.90;;;;;;5075440;28;20190;-59
2020/12/20 04:58:33;;;;;;;4.28;2.78;;;19.50;26.90;;;;;;5075571;28;20617;-60
2020/12/20 05:00:59;;;;;;;2.10;2.00;;;19.50;26.90;;;;;;5074435;28;20186;-60
2020/12/20 05:03:28;;;;;;;2.90;2.70;;;19.50;26.90;;;;;;5075536;28;20194;-60
2020/12/20 05:05:54;;;;;;;2.60;2.40;;;19.50;26.90;;;;;;5075497;28;20210;-60
2020/12/20 05:08:21;;;;;;;2.83;2.58;;;19.50;26.90;;;;;;5075076;28;20177;-59
2020/12/20 05:10:48;;;;;;;2.65;2.45;;;19.50;26.90;;;;;;5075319;28;20163;-59
2020/12/20 05:13:14;;;;;;;2.70;2.50;;;19.50;26.90;;;;;;5075490;28;20154;-59
2020/12/20 05:15:39;;;;;;;3.53;3.00;;;19.50;26.90;;;;;;5075364;28;20166;-59
2020/12/20 05:18:10;;;;;;;3.00;2.80;;;19.50;26.90;;;;;;5075206;28;20931;-60
2020/12/20 05:20:43;;;;;;;3.55;3.22;;;19.50;26.90;;;;;;5074150;28;20194;-59
2020/12/20 05:23:10;;;;;;;3.05;2.85;;;19.50;26.90;;;;;;5074541;28;20154;-59
2020/12/20 05:25:37;;;;;;;2.40;2.20;;;19.50;26.90;;;;;;5075121;28;20182;-60
2020/12/20 05:28:18;;;;;;;2.65;2.45;;;19.50;26.90;;;;;;5074845;28;20201;-59
2020/12/20 05:30:46;;;;;;;2.80;2.60;;;19.50;26.90;;;;;;5073841;28;20624;-61
2020/12/20 05:33:28;;;;;;;3.10;2.75;;;19.50;26.90;;;;;;5074883;28;20155;-60
2020/12/20 05:36:12;;;;;;;2.63;2.42;;;19.50;26.90;;;;;;5075103;28;20155;-60
2020/12/20 05:38:37;;;;;;;2.75;2.50;;;19.50;26.90;;;;;;5074249;28;20178;-60
2020/12/20 05:41:04;;;;;;;3.20;2.63;;;19.50;26.90;;;;;;5075228;28;20204;-60
2020/12/20 05:43:30;;;;;;;3.20;3.00;;;19.50;26.90;;;;;;5074638;28;20163;-60
2020/12/20 05:45:59;;;;;;;3.25;2.95;;;19.50;26.90;;;;;;5074655;28;20226;-60
2020/12/20 05:48:26;;;;;;;3.53;3.15;;;19.50;26.90;;;;;;5074745;28;20151;-60
2020/12/20 05:51:06;;;;;;;3.67;2.88;;;19.50;26.90;;;;;;5074772;28;20237;-60
2020/12/20 05:53:33;;;;;;;3.17;2.88;;;19.50;26.90;;;;;;5074358;28;20245;-60
2020/12/20 05:56:02;;;;;;;3.13;2.90;;;19.50;26.90;;;;;;5074865;28;20723;-60
2020/12/20 05:58:29;;;;;;;2.70;2.50;;;19.50;26.90;;;;;;5074456;28;20159;-60
2020/12/20 06:00:59;;;;;;;3.05;2.85;;;19.50;26.90;;;;;;5074647;28;20239;-60
2020/12/20 06:03:28;;;;;;;3.17;2.90;;;19.50;26.90;;;;;;5074862;28;20601;-60
2020/12/20 06:05:54;;;;;;;3.38;3.08;;;19.50;26.90;;;;;;5074284;28;20204;-61
2020/12/20 06:08:23;;;;;;;2.97;2.70;;;19.50;26.90;;;;;;5073430;28;20158;-61
2020/12/20 06:10:51;;;;;;;2.30;2.10;;;19.50;26.90;;;;;;5074350;28;20237;-60
2020/12/20 06:13:19;;;;;;;3.05;2.75;;;19.40;26.80;;;;;;5074071;28;20159;-61
2020/12/20 06:15:50;;;;;;;4.85;2.78;;;19.50;26.90;;;;;;5074437;28;20159;-60
2020/12/20 06:18:29;;;;;;;2.80;2.60;;;19.40;26.80;;;;;;5074304;28;20159;-60
2020/12/20 06:21:02;;;;;;;3.55;3.10;;;19.50;26.90;;;;;;5074149;28;20590;-61
2020/12/20 06:23:33;;;;;;;2.97;2.78;;;19.50;26.90;;;;;;5073652;28;20182;-60
2020/12/20 06:26:01;;;;;;;3.05;2.83;;;19.50;26.90;;;;;;5074228;28;20220;-60
2020/12/20 06:28:28;;;;;;;3.42;2.78;;;19.40;26.80;;;;;;5074195;28;20165;-59
2020/12/20 06:30:55;;;;;;;2.58;2.38;;;19.50;26.90;;;;;;5072998;28;20167;-60
2020/12/20 06:33:39;;;;;;;2.63;2.42;;;19.40;26.80;;;;;;5073955;28;20166;-60
2020/12/20 06:36:13;;;;;;;5.40;2.97;;;19.40;26.80;;;;;;5073860;28;20159;-60
2020/12/20 06:38:39;;;;;;;2.83;2.60;;;19.40;26.80;;;;;;5071959;28;20680;-59
2020/12/20 06:41:05;;;;;;;3.43;2.57;;;19.40;27.40;;;;;;5073880;28;20190;-60
2020/12/20 06:43:36;;;;;;;2.75;2.55;;;19.50;26.90;;;;;;5073658;28;20162;-60
2020/12/20 06:46:06;;;;;;;3.28;2.97;;;19.50;26.90;;;;;;5073822;28;20711;-60
2020/12/20 06:48:37;;;;;;;2.88;2.67;;;19.50;26.90;;;;;;5073939;28;20169;-60
2020/12/20 06:51:07;;;;;;;3.15;2.85;;;19.40;26.80;;;;;;5073640;28;20150;-59
2020/12/20 06:53:50;;;;;;;2.78;2.58;;;19.40;26.90;;;;;;5073768;28;20178;-60
2020/12/20 06:56:18;;;;;;;2.63;2.42;;;19.40;26.90;;;;;;5073574;28;20162;-60
2020/12/20 06:58:44;;;;;;;2.55;2.30;;;19.40;26.90;;;;;;5073672;28;20150;-60
2020/12/20 07:01:10;;;;;;;2.40;2.20;;;19.40;26.90;;;;;;5073926;28;20154;-60
2020/12/20 07:03:40;;;;;;;2.70;2.50;;;19.40;26.90;;;;;;5073500;28;20158;-59
2020/12/20 07:06:11;;;;;;;2.80;2.60;;;19.40;26.90;;;;;;5073866;28;20522;-60
2020/12/20 07:08:38;;;;;;;2.55;2.35;;;19.40;26.90;;;;;;5073426;28;20161;-59
2020/12/20 07:11:06;;;;;;;2.97;2.72;;;19.40;26.90;;;;;;5073833;28;20746;-59
2020/12/20 07:13:40;;;;;;;3.78;3.30;;;19.40;26.90;;;;;;5074071;28;20225;-60
2020/12/20 07:16:38;;;;;;;2.60;2.40;;;19.40;26.90;;;;;;5073439;28;20205;-65
2020/12/20 07:19:09;;;;;;;2.35;2.15;;;19.40;26.90;;;;;;5075800;28;20178;-60
2020/12/20 07:21:54;;;;;;;3.03;2.83;;;19.40;26.90;;;;;;5076500;28;20155;-60
2020/12/20 07:24:24;;;;;;;3.05;2.85;;;19.40;26.90;;;;;;5077463;28;20159;-60
2020/12/20 07:26:53;;;;;;;2.78;2.45;;;19.40;26.90;;;;;;5077431;28;20206;-60
2020/12/20 07:29:19;;;;;;;2.75;2.55;;;19.40;27.40;;;;;;5077433;28;20153;-60
2020/12/20 07:31:49;;;;;;;2.95;2.75;;;19.40;26.90;;;;;;5077285;28;20154;-60
2020/12/20 07:34:14;;;;;;;3.30;2.15;;;19.40;26.90;;;;;;5077357;28;20158;-59
2020/12/20 07:36:40;;;;;;;3.40;3.10;;;19.40;26.90;;;;;;5077587;28;20158;-60
2020/12/20 07:39:06;;;;;;;3.17;2.87;;;19.40;26.90;;;;;;5076456;28;20205;-60
2020/12/20 07:41:33;;;;;;;2.60;2.40;;;19.40;26.90;;;;;;5059201;28;20174;-60
2020/12/20 07:44:04;;;;;;;2.80;2.60;;;19.40;26.90;;;;;;5076211;28;20224;-59
2020/12/20 07:46:30;;;;;;;2.67;2.47;;;19.40;26.90;;;;;;5075785;28;20226;-60
2020/12/20 07:49:11;;;;;;;2.35;2.20;;;19.40;26.90;;;;;;5077021;28;20143;-59
2020/12/20 07:51:37;;;;;;;2.42;2.22;;;19.40;26.90;;;;;;5077278;28;20142;-60
2020/12/20 07:54:10;;;;;;;2.60;2.40;;;19.40;26.80;;;;;;5076387;28;20158;-60
2020/12/20 07:56:38;;;;;;;2.60;2.40;;;19.40;26.80;;;;;;5076820;28;20158;-60
2020/12/20 07:59:07;;;;;;;2.33;2.13;;;19.40;26.80;;;;;;5076821;28;20180;-61
2020/12/20 08:01:33;;;;;;;2.60;2.40;;;19.40;26.80;;;;;;5076651;28;20629;-60
2020/12/20 08:04:14;;;;;;;2.60;2.40;;;19.40;26.80;;;;;;5076568;28;20158;-60
2020/12/20 08:06:42;;;;;;;2.63;2.42;;;19.40;26.80;;;;;;5076730;28;20277;-59
2020/12/20 08:09:22;;;;;;;3.15;2.45;;;19.40;26.80;;;;;;5076098;28;20173;-59
2020/12/20 08:11:49;;;;;;;2.45;2.15;;;19.40;26.80;;;;;;5076381;28;20232;-59
2020/12/20 08:14:17;;;;;;;3.50;3.15;;;19.40;26.80;;;;;;5077080;28;20158;-60
2020/12/20 08:16:47;;;;;;;2.80;2.60;;;19.40;26.80;;;;;;5075505;28;20551;-60
2020/12/20 08:19:19;;;;;;;2.95;2.75;;;19.40;26.80;;;;;;5074944;28;20177;-60
2020/12/20 08:22:03;;;;;;;3.00;2.80;;;19.40;26.70;;;;;;5076421;28;20205;-60
2020/12/20 08:24:37;;;;;;;2.97;2.78;;;19.40;26.50;;;;;;5076677;28;20617;-60
2020/12/20 08:27:21;;;;;;;3.38;3.08;;;19.40;26.40;;;;;;5075007;28;20568;-60
2020/12/20 08:29:49;;;;;;;3.28;2.97;;;19.40;26.30;;;;;;5075741;28;20151;-61
2020/12/20 08:32:20;;;;;;;3.15;2.95;;;19.40;26.90;;;;;;5075916;28;20162;-59
2020/12/20 08:34:46;;;;;;;3.47;3.22;;;19.50;26.70;;;;;;5076207;28;20186;-59
2020/12/20 08:37:18;;;;;;;3.45;3.22;;;19.50;27.10;;;;;;5075355;28;20178;-59
2020/12/20 08:39:44;;;;;;;3.90;3.45;;;19.40;27.20;;;;;;5076052;28;20253;-59
2020/12/20 08:42:12;;;;;;;5.13;3.47;;;19.50;27.10;;;;;;5075715;28;20177;-59
2020/12/20 08:44:39;;;;;;;4.55;3.80;;;19.40;26.80;;;;;;5074608;28;20416;-59
2020/12/20 08:47:17;;;;;;;3.97;3.67;;;19.40;26.70;;;;;;5075509;28;20673;-59
2020/12/20 08:49:59;;;;;;;4.05;3.70;;;19.40;26.60;;;;;;5075946;28;20249;-58
2020/12/20 08:52:30;;;;;;;3.65;3.33;;;19.40;26.50;;;;;;5075255;28;20193;-59
2020/12/20 08:54:57;;;;;;;3.83;3.20;;;19.50;26.40;;;;;;5074371;28;20296;-59
2020/12/20 08:57:31;;;;;;;3.85;3.53;;;19.50;26.30;;;;;;5075506;28;20159;-56
2020/12/20 09:00:08;;;;;;;3.63;3.30;;;19.50;26.20;;;;;;5075992;28;20208;-60
2020/12/20 09:02:34;;;;;;;3.95;3.00;;;19.50;26.10;;;;;;5076351;28;20163;-61
2020/12/20 09:05:03;;;;;;;4.27;3.87;;;19.50;26.10;;;;;;5075859;28;20162;-61
2020/12/20 09:07:33;;;;;;;4.45;3.58;;;19.50;26.00;;;;;;5073796;28;20281;-61
2020/12/20 09:10:06;;;;;;;3.65;3.33;;;19.50;26.00;;;;;;5074521;28;20618;-61
2020/12/20 09:12:32;;;;;;;4.32;3.92;;;19.50;26.10;;;;;;5075475;28;20204;-61
2020/12/20 09:15:01;;;;;;;3.20;3.00;;;19.60;26.20;;;;;;5075605;28;20238;-60
2020/12/20 09:17:35;;;;;;;3.90;3.60;;;19.50;26.10;;;;;;5075229;28;20404;-60
2020/12/20 09:20:04;;;;;;;4.10;3.10;;;19.60;26.10;;;;;;5074323;28;20501;-61
2020/12/20 09:23:01;;;;;;;3.78;3.47;;;19.60;26.10;;;;;;5074803;28;20170;-61
2020/12/20 09:25:43;;;;;;;6.07;3.42;;;19.60;26.10;;;;;;5075244;28;20158;-61
2020/12/20 09:28:24;;;;;;;3.65;3.35;;;19.60;26.00;;;;;;5075282;28;20143;-62
2020/12/20 09:30:51;;;;;;;3.17;2.90;;;19.70;26.00;;;;;;5075298;28;20197;-60
2020/12/20 09:33:31;;;;;;;4.15;3.20;;;19.70;26.00;;;;;;5075173;28;20273;-60
2020/12/20 09:35:58;;;;;;;3.95;2.55;;;19.70;26.00;;;;;;5075303;28;20151;-60
2020/12/20 09:38:46;;;;;;;3.33;3.03;;;19.70;25.90;;;;;;5074269;28;20174;-61
2020/12/20 09:41:13;;;;;;;3.70;2.50;;;19.70;25.90;;;;;;5075104;28;20617;-60
2020/12/20 09:43:42;;;;;;;2.65;2.45;;;19.70;25.80;;;;;;5075315;28;20154;-60
2020/12/20 09:46:20;;;;;;;3.58;3.25;;;19.70;25.80;;;;;;5074884;28;20249;-61
2020/12/20 09:48:46;;;;;;;3.13;2.85;;;19.70;25.80;;;;;;5073584;28;20167;-60
2020/12/20 09:51:12;;;;;;;2.70;2.50;;;19.70;25.80;;;;;;5057097;28;20569;-60
2020/12/20 09:53:38;;;;;;;2.50;2.30;;;19.70;26.40;;;;;;5073292;28;20185;-60
2020/12/20 09:56:03;;;;;;;5.50;2.90;;;19.70;25.80;;;;;;5074843;28;20207;-60
2020/12/20 09:58:29;;;;;;;3.67;3.10;;;19.70;25.80;;;;;;5074734;28;20204;-60
2020/12/20 10:00:58;;;;;;;4.57;3.03;;;19.70;25.80;;;;;;5074623;28;20614;-60
2020/12/20 10:03:29;;;;;;;3.15;2.85;;;19.70;25.80;;;;;;5074483;28;20232;-60
2020/12/20 10:05:59;;;;;;;3.42;2.40;;;19.70;25.80;;;;;;5074449;28;20186;-60
2020/12/20 10:08:26;;;;;;;3.55;3.25;;;19.70;25.80;;;;;;5073865;28;20622;-60
2020/12/20 10:10:52;;;;;;;3.53;3.22;;;19.70;25.80;;;;;;5074734;28;20163;-60
2020/12/20 10:13:18;;;;;;;4.10;2.78;;;19.70;25.80;;;;;;5074977;28;20600;-60
2020/12/20 10:15:44;;;;;;;3.30;3.00;;;19.70;25.80;;;;;;5074307;28;20606;-60
2020/12/20 10:18:10;;;;;;;3.67;3.13;;;19.70;25.80;;;;;;5074041;28;20609;-60
2020/12/20 10:20:36;;;;;;;3.43;2.90;;;19.70;25.70;;;;;;5073165;28;20174;-60
2020/12/20 10:23:02;;;;;;;3.00;2.70;;;19.70;25.70;;;;;;5073937;28;20854;-60
2020/12/20 10:25:28;;;;;;;3.03;2.60;;;19.70;25.80;;;;;;5074139;28;20170;-61
2020/12/20 10:27:55;;;;;;;3.45;2.50;;;19.70;25.80;;;;;;5074193;28;20169;-60
2020/12/20 10:30:21;;;;;;;2.85;2.65;;;19.70;25.80;;;;;;5074226;28;20547;-60
2020/12/20 10:32:47;;;;;;;2.60;2.40;;;19.70;25.80;;;;;;5074312;28;20202;-60
2020/12/20 10:35:17;;;;;;;3.03;2.83;;;19.70;25.80;;;;;;5074126;28;20196;-60
2020/12/20 10:37:43;;;;;;;2.65;2.45;;;19.70;25.80;;;;;;5072091;28;20178;-60
2020/12/20 10:40:09;;;;;;;3.00;2.80;;;19.70;25.90;;;;;;5072780;28;20495;-60
2020/12/20 10:42:35;;;;;;;2.90;2.70;;;19.70;25.90;;;;;;5074015;28;20432;-60
2020/12/20 10:45:00;;;;;;;3.27;2.97;;;19.70;25.90;;;;;;5074103;28;20205;-61
2020/12/20 10:47:29;;;;;;;3.67;3.07;;;19.70;25.90;;;;;;5073618;28;20249;-61
2020/12/20 10:49:58;;;;;;;5.18;3.05;;;19.70;25.90;;;;;;5074249;28;20158;-61
2020/12/20 10:52:23;;;;;;;3.45;3.10;;;19.70;25.90;;;;;;5073170;28;20245;-61
2020/12/20 10:54:49;;;;;;;3.07;2.73;;;19.60;25.80;;;;;;5074041;28;20277;-60
2020/12/20 10:57:15;;;;;;;3.50;2.87;;;19.70;25.90;;;;;;5073960;28;20633;-61
2020/12/20 10:59:40;;;;;;;2.50;2.30;;;19.70;25.90;;;;;;5074117;28;20245;-62
2020/12/20 11:02:06;;;;;;;6.47;3.10;;;19.60;25.80;;;;;;5073563;28;20249;-61
2020/12/20 11:04:32;;;;;;;2.72;2.53;;;19.70;25.90;;;;;;5073812;28;20173;-61
2020/12/20 11:06:58;;;;;;;3.07;2.80;;;19.70;25.90;;;;;;5072016;28;20194;-61
2020/12/20 11:09:25;;;;;;;3.03;2.78;;;19.70;25.90;;;;;;5073711;28;20151;-61
2020/12/20 11:11:52;;;;;;;2.70;2.50;;;19.70;25.80;;;;;;5072738;28;20166;-61
2020/12/20 11:14:18;;;;;;;3.08;2.80;;;19.70;25.80;;;;;;5073849;28;20162;-61
2020/12/20 11:16:44;;;;;;;2.40;2.17;;;19.70;25.80;;;;;;5073649;28;20162;-61
2020/12/20 11:19:10;;;;;;;3.07;2.70;;;19.70;25.70;;;;;;5073817;28;20165;-61
2020/12/20 11:21:36;;;;;;;2.88;2.63;;;19.80;25.70;;;;;;5073570;28;20610;-61
2020/12/20 11:24:03;;;;;;;2.63;2.42;;;19.80;25.70;;;;;;5073230;28;20161;-61
2020/12/20 11:26:28;;;;;;;2.45;2.15;;;19.80;25.70;;;;;;5073767;28;20212;-60
2020/12/20 11:28:54;;;;;;;2.70;2.50;;;19.80;25.60;;;;;;5072162;28;20162;-61
2020/12/20 11:31:22;;;;;;;2.85;2.65;;;19.80;25.60;;;;;;5073528;28;20411;-61
2020/12/20 11:33:49;;;;;;;2.83;2.60;;;19.80;25.50;;;;;;5073739;28;20204;-60
2020/12/20 11:36:17;;;;;;;3.47;2.60;;;19.80;25.50;;;;;;5073182;28;20150;-60
2020/12/20 11:38:43;;;;;;;2.72;2.53;;;19.80;25.50;;;;;;5072729;28;20253;-60
2020/12/20 11:41:09;;;;;;;2.87;2.53;;;19.90;25.60;;;;;;5073576;28;20232;-60
2020/12/20 11:43:35;;;;;;;2.85;2.65;;;19.90;25.50;;;;;;5072295;28;20170;-60
2020/12/20 11:46:01;;;;;;;2.50;2.30;;;19.90;25.50;;;;;;5071912;28;20197;-60
2020/12/20 11:48:27;;;;;;;4.03;2.50;;;19.90;25.50;;;;;;5072017;28;20402;-60
2020/12/20 11:50:53;;;;;;;2.60;2.40;;;19.90;25.40;;;;;;5073440;28;20159;-61
2020/12/20 11:53:19;;;;;;;2.87;2.57;;;19.90;25.40;;;;;;5071921;28;20177;-61
2020/12/20 11:55:44;;;;;;;4.23;2.60;;;19.90;25.40;;;;;;5073398;28;20403;-62
2020/12/20 11:58:13;;;;;;;3.33;2.33;;;19.90;25.40;;;;;;5072213;28;20409;-61
2020/12/20 12:00:47;;;;;;;2.65;2.45;;;19.90;25.40;;;;;;5073009;28;20159;-61
2020/12/20 12:03:14;;;;;;;3.13;2.78;;;19.90;25.40;;;;;;5073358;28;20200;-60
2020/12/20 12:05:42;;;;;;;2.88;2.67;;;19.90;25.30;;;;;;5074986;28;20245;-60
2020/12/20 12:08:09;;;;;;;3.00;2.80;;;19.90;25.30;;;;;;5076127;28;20229;-61
2020/12/20 12:10:38;;;;;;;2.83;2.47;;;19.90;25.30;;;;;;5077074;28;20157;-60
2020/12/20 12:13:04;;;;;;;2.50;2.30;;;19.90;25.30;;;;;;5076798;28;20651;-60
2020/12/20 12:15:31;;;;;;;2.60;2.40;;;19.90;25.30;;;;;;5076607;28;20167;-60
2020/12/20 12:17:57;;;;;;;2.63;2.42;;;19.90;25.30;;;;;;5077104;28;20220;-60
2020/12/20 12:20:22;;;;;;;3.17;2.87;;;20.00;25.30;;;;;;5076717;28;20514;-60
2020/12/20 12:22:48;;;;;;;2.97;2.70;;;20.00;25.30;;;;;;5074889;28;20181;-61
2020/12/20 12:25:14;;;;;;;2.50;2.30;;;19.90;25.30;;;;;;5076356;28;20163;-61
2020/12/20 12:27:40;;;;;;;5.38;2.95;;;19.90;25.20;;;;;;5075125;28;20186;-61
2020/12/20 12:30:06;;;;;;;3.30;2.40;;;19.90;25.20;;;;;;5076639;28;20155;-61
2020/12/20 12:32:32;;;;;;;2.85;2.45;;;19.90;25.20;;;;;;5076435;28;20413;-60
2020/12/20 12:34:58;;;;;;;2.63;2.43;;;19.90;25.30;;;;;;5076703;28;20667;-60
2020/12/20 12:37:24;;;;;;;3.13;2.85;;;19.90;25.30;;;;;;5075574;28;20178;-60
2020/12/20 12:39:50;;;;;;;2.60;2.40;;;19.90;25.30;;;;;;5076746;28;20166;-60
2020/12/20 12:42:16;;;;;;;2.70;2.40;;;19.90;25.30;;;;;;5076091;28;20241;-60
2020/12/20 12:44:42;;;;;;;2.70;2.50;;;19.90;25.30;;;;;;5076110;28;20167;-61
2020/12/20 12:47:09;;;;;;;2.53;2.30;;;19.90;25.40;;;;;;5075870;28;20253;-60
2020/12/20 12:49:35;;;;;;;3.05;2.78;;;19.90;25.40;;;;;;5074916;28;20507;-61
2020/12/20 12:52:01;;;;;;;2.53;2.35;;;19.90;25.40;;;;;;5075621;28;20277;-61